»·PEaware :: N800DW TXKF-KRFD

N800DW :: TXKF-KRFD

FLIGHT INFORMATION

Flight Status: Arrived
Operator: Privately registered:
United States
More flights under this callsign
Pilot: Scott L. (17677)
Aircraft: Unknown
(EPIC)
More flights by this aircraft type
Origin: TXKF Bermuda Intl
Bermuda
Destination: KRFD Greater Rockford
United States
More flights between these airports :: More routes between these airports
Route: LUNDY DAIFE BRBIE
File this flight plan on PilotEdge
Remarks:
Altitude:
(Current/Filed)
30,000ft
Speed:
(Current/Filed)
300kts
Departed: 28-Apr-18 03:36 AM
Arrived: 28-Apr-18 06:49 AM
Distance/Time
Traveled:
1300nm/3:12
Distance/Time
To Go:
Arrived

Flight Plot

Page will automatically refresh every two minutes.

Flight plan parsing failed; only flown route is shown


Map Options




Map Legend


Flown Route
Filed Route
Departure Airport
Arrival Airport
Navaid (VOR, NDB)
Fix

Horizontal Profiles

Position Reports

Time Latitude Longitude Heading Altitude Ground
Speed
28-Apr-18 03:34 32.442226 -64.801968 297 10745ft 227kts
28-Apr-18 03:35 32.472698 -64.854395 298 13310ft 240kts
28-Apr-18 03:36 32.512367 -64.918961 301 16372ft 232kts
28-Apr-18 03:37 32.553986 -64.987761 298 18143ft 266kts
28-Apr-18 03:38 32.605931 -65.072942 298 20298ft 280kts
28-Apr-18 03:39 32.652323 -65.149010 298 21863ft 290kts
28-Apr-18 03:40 32.692154 -65.214446 298 22968ft 297kts
28-Apr-18 03:41 32.740843 -65.294559 298 24172ft 302kts
28-Apr-18 03:42 32.789972 -65.375541 298 25201ft 307kts
28-Apr-18 03:43 32.839987 -65.458260 299 26068ft 312kts
28-Apr-18 03:44 32.890693 -65.542265 299 26823ft 315kts
28-Apr-18 03:45 32.941773 -65.627059 299 27475ft 317kts
28-Apr-18 03:46 32.993365 -65.712906 298 28040ft 320kts
28-Apr-18 03:47 33.045207 -65.799393 298 28496ft 323kts
28-Apr-18 03:48 33.097449 -65.886745 298 28909ft 325kts
28-Apr-18 03:49 33.149840 -65.974553 299 29242ft 326kts
28-Apr-18 03:50 33.202504 -66.063005 299 29497ft 328kts
28-Apr-18 03:51 33.255103 -66.151573 298 29741ft 329kts
28-Apr-18 03:52 33.308104 -66.241047 299 29900ft 332kts
28-Apr-18 03:53 33.360820 -66.330230 298 30180ft 330kts
28-Apr-18 03:54 33.414237 -66.420856 299 30182ft 336kts
28-Apr-18 03:55 33.468133 -66.512459 299 30182ft 338kts
28-Apr-18 03:56 33.522185 -66.604607 299 30183ft 340kts
28-Apr-18 03:57 33.576274 -66.697039 298 30183ft 340kts
28-Apr-18 03:58 33.630485 -66.789914 298 30183ft 340kts
28-Apr-18 03:59 33.684501 -66.882695 298 30184ft 341kts
28-Apr-18 04:00 33.738355 -66.975430 298 30184ft 341kts
28-Apr-18 04:01 33.792294 -67.068531 298 30186ft 341kts
28-Apr-18 04:02 33.846250 -67.161932 298 30186ft 341kts
28-Apr-18 04:03 33.900175 -67.255492 298 30187ft 342kts
28-Apr-18 04:04 33.954127 -67.349384 298 30187ft 342kts
28-Apr-18 04:05 34.008014 -67.443360 298 30188ft 342kts
28-Apr-18 04:06 34.061722 -67.537286 298 30189ft 342kts
28-Apr-18 04:07 34.115407 -67.631409 298 30179ft 342kts
28-Apr-18 04:08 34.169134 -67.725866 298 30177ft 340kts
28-Apr-18 04:09 34.222574 -67.820031 298 30179ft 340kts
28-Apr-18 04:10 34.275781 -67.914079 297 30179ft 340kts
28-Apr-18 04:11 34.328954 -68.008271 298 30181ft 340kts
28-Apr-18 04:12 34.381955 -68.102420 297 30181ft 340kts
28-Apr-18 04:13 34.434890 -68.196712 297 30182ft 340kts
28-Apr-18 04:14 34.487839 -68.291277 297 30182ft 340kts
28-Apr-18 04:15 34.540807 -68.386125 298 30183ft 340kts
28-Apr-18 04:16 34.593542 -68.480793 297 30183ft 340kts
28-Apr-18 04:17 34.646296 -68.575740 298 30184ft 340kts
28-Apr-18 04:18 34.697789 -68.668688 297 30184ft 340kts
28-Apr-18 04:19 34.750508 -68.764074 297 30185ft 340kts
28-Apr-18 04:20 34.803085 -68.859501 297 30185ft 341kts
28-Apr-18 04:21 34.855540 -68.954923 297 30186ft 341kts
28-Apr-18 04:22 34.908014 -69.050644 297 30187ft 341kts
28-Apr-18 04:23 34.960461 -69.146596 297 30188ft 341kts
28-Apr-18 04:24 35.012804 -69.242593 297 30188ft 341kts
28-Apr-18 04:25 35.065261 -69.339101 297 30188ft 341kts
28-Apr-18 04:26 35.117542 -69.435500 297 30179ft 341kts
28-Apr-18 04:27 35.169662 -69.531893 297 30178ft 340kts
28-Apr-18 04:28 35.221594 -69.628212 297 30179ft 339kts
28-Apr-18 04:29 35.273222 -69.724206 296 30179ft 339kts
28-Apr-18 04:30 35.324880 -69.820507 296 30181ft 339kts
28-Apr-18 04:31 35.376409 -69.916880 296 30181ft 339kts
28-Apr-18 04:32 35.427799 -70.013255 296 30180ft 339kts
28-Apr-18 04:33 35.479082 -70.109652 296 30181ft 339kts
28-Apr-18 04:34 35.530308 -70.206243 296 30182ft 339kts
28-Apr-18 04:35 35.581429 -70.302902 296 30183ft 340kts
28-Apr-18 04:36 35.632480 -70.399676 296 30184ft 340kts
28-Apr-18 04:37 35.683650 -70.496981 296 30184ft 340kts
28-Apr-18 04:38 35.734794 -70.594488 296 30186ft 340kts
28-Apr-18 04:39 35.785817 -70.692037 296 30185ft 340kts
28-Apr-18 04:40 35.836927 -70.790039 296 30185ft 340kts
28-Apr-18 04:41 35.887735 -70.887732 296 30187ft 340kts
28-Apr-18 04:42 35.938621 -70.985869 296 30186ft 340kts
28-Apr-18 04:43 35.989402 -71.084086 296 30187ft 340kts
28-Apr-18 04:44 36.040028 -71.182255 296 30189ft 341kts
28-Apr-18 04:45 36.090653 -71.280740 296 30188ft 341kts
28-Apr-18 04:46 36.141253 -71.379416 296 30178ft 339kts
28-Apr-18 04:47 36.191489 -71.477698 296 30179ft 339kts
28-Apr-18 04:48 36.241743 -71.576285 296 30180ft 338kts
28-Apr-18 04:49 36.291838 -71.674862 295 30179ft 339kts
28-Apr-18 04:50 36.341821 -71.773511 295 30180ft 338kts
28-Apr-18 04:51 36.391567 -71.871970 295 30180ft 338kts
28-Apr-18 04:52 36.441459 -71.970987 295 30181ft 338kts
28-Apr-18 04:53 36.490994 -72.069602 295 30182ft 338kts
28-Apr-18 04:54 36.540715 -72.168867 295 30183ft 339kts
28-Apr-18 04:55 36.590275 -72.268088 295 30183ft 339kts
28-Apr-18 04:56 36.639770 -72.367498 295 30184ft 339kts
28-Apr-18 04:57 36.689178 -72.467004 295 30185ft 339kts
28-Apr-18 04:58 36.738659 -72.566976 295 30185ft 339kts
28-Apr-18 04:59 36.787876 -72.666706 294 30185ft 339kts
28-Apr-18 05:00 36.837021 -72.766595 294 30185ft 339kts
28-Apr-18 05:01 36.886114 -72.866635 294 30187ft 339kts
28-Apr-18 05:02 36.935356 -72.967295 294 30188ft 340kts
28-Apr-18 05:03 36.984210 -73.067502 294 30187ft 340kts
28-Apr-18 05:04 37.033041 -73.167947 294 30188ft 340kts
28-Apr-18 05:05 37.081889 -73.268717 294 30189ft 340kts
28-Apr-18 05:06 37.129893 -73.368041 294 30178ft 339kts
28-Apr-18 05:07 37.178454 -73.468839 294 30179ft 338kts
28-Apr-18 05:08 37.226603 -73.569087 294 30179ft 338kts
28-Apr-18 05:09 37.274477 -73.669044 294 30179ft 338kts
28-Apr-18 05:10 37.322711 -73.770072 294 30180ft 337kts
28-Apr-18 05:11 37.370617 -73.870746 294 30053ft 342kts
28-Apr-18 05:12 37.419564 -73.973881 294 29943ft 342kts
28-Apr-18 05:13 37.467913 -74.076096 294 29943ft 340kts
28-Apr-18 05:14 37.516125 -74.178330 294 29945ft 339kts
28-Apr-18 05:15 37.564077 -74.280343 294 29945ft 339kts
28-Apr-18 05:16 37.611981 -74.382568 294 29945ft 339kts
28-Apr-18 05:17 37.659803 -74.484925 294 29947ft 339kts
28-Apr-18 05:18 37.707669 -74.587740 294 29947ft 340kts
28-Apr-18 05:19 37.749681 -74.678208 293 29947ft 340kts
28-Apr-18 05:20 37.792541 -74.770805 293 29946ft 340kts
28-Apr-18 05:21 37.840034 -74.873650 293 29948ft 339kts
28-Apr-18 05:22 37.887526 -74.976868 293 29949ft 340kts
28-Apr-18 05:23 37.934910 -75.080179 293 29950ft 340kts
28-Apr-18 05:24 37.982202 -75.183642 293 29949ft 340kts
28-Apr-18 05:25 38.029510 -75.287427 293 29950ft 340kts
28-Apr-18 05:26 38.076690 -75.391286 293 29951ft 340kts
28-Apr-18 05:27 38.123367 -75.494376 293 29940ft 340kts
28-Apr-18 05:28 38.170182 -75.598070 293 29941ft 339kts
28-Apr-18 05:29 38.213902 -75.695264 293 29940ft 338kts
28-Apr-18 05:30 38.255414 -75.787783 292 29941ft 338kts
28-Apr-18 05:31 38.301642 -75.891135 292 29939ft 338kts
28-Apr-18 05:32 38.348024 -75.995193 292 29924ft 338kts
28-Apr-18 05:33 38.394401 -76.099545 292 29925ft 338kts
28-Apr-18 05:34 38.440667 -76.204008 293 29926ft 339kts
28-Apr-18 05:35 38.486804 -76.308522 293 29926ft 339kts
28-Apr-18 05:36 38.532741 -76.412943 292 29927ft 339kts
28-Apr-18 05:37 38.578747 -76.517848 292 29928ft 339kts
28-Apr-18 05:38 38.624716 -76.623006 292 29929ft 339kts
28-Apr-18 05:39 38.670107 -76.727225 292 29927ft 339kts
28-Apr-18 05:40 38.715625 -76.832039 292 29928ft 339kts
28-Apr-18 05:41 38.760984 -76.936858 292 29928ft 339kts
28-Apr-18 05:42 38.806321 -77.041972 292 29902ft 340kts
28-Apr-18 05:43 38.851792 -77.147770 292 29902ft 340kts
28-Apr-18 05:44 38.897206 -77.253785 292 29903ft 340kts
28-Apr-18 05:45 38.942417 -77.359668 292 29904ft 340kts
28-Apr-18 05:46 38.987712 -77.466127 292 29904ft 340kts
28-Apr-18 05:47 39.032509 -77.571769 292 29914ft 340kts
28-Apr-18 05:48 39.076616 -77.676131 291 29913ft 340kts
28-Apr-18 05:49 39.120608 -77.780550 291 29903ft 339kts
28-Apr-18 05:50 39.165165 -77.886695 291 29904ft 338kts
28-Apr-18 05:51 39.209640 -77.993022 291 29904ft 337kts
28-Apr-18 05:52 39.253930 -78.099246 291 29895ft 337kts
28-Apr-18 05:53 39.298137 -78.205657 291 29896ft 338kts
28-Apr-18 05:54 39.342470 -78.312731 291 29897ft 338kts
28-Apr-18 05:55 39.386469 -78.419380 291 29897ft 338kts
28-Apr-18 05:56 39.423218 -78.508705 291 29898ft 338kts
28-Apr-18 05:57 39.467054 -78.615659 291 29916ft 338kts
28-Apr-18 05:58 39.509633 -78.719865 290 29916ft 338kts
28-Apr-18 05:59 39.553433 -78.827449 290 29916ft 338kts
28-Apr-18 06:00 39.597065 -78.934988 290 29918ft 338kts
28-Apr-18 06:01 39.640657 -79.042814 291 29918ft 338kts
28-Apr-18 06:02 39.677231 -79.153819 282 29919ft 333kts
28-Apr-18 06:03 39.708256 -79.267120 282 29919ft 333kts
28-Apr-18 06:04 39.738931 -79.380373 282 29920ft 333kts
28-Apr-18 06:05 39.769443 -79.493647 282 29919ft 333kts
28-Apr-18 06:06 39.799993 -79.607546 282 29921ft 333kts
28-Apr-18 06:07 39.830012 -79.719955 281 29857ft 335kts
28-Apr-18 06:08 39.860357 -79.834103 281 29857ft 334kts
28-Apr-18 06:09 39.890490 -79.948022 281 29857ft 333kts
28-Apr-18 06:10 39.920536 -80.062108 281 29858ft 333kts
28-Apr-18 06:11 39.950469 -80.176277 281 29858ft 333kts
28-Apr-18 06:12 39.980063 -80.289696 281 29886ft 333kts
28-Apr-18 06:13 40.009666 -80.403678 281 29886ft 333kts
28-Apr-18 06:14 40.039144 -80.517673 281 29887ft 333kts
28-Apr-18 06:15 40.068552 -80.631979 281 29886ft 333kts
28-Apr-18 06:16 40.097457 -80.744790 280 29887ft 333kts
28-Apr-18 06:17 40.122535 -80.843133 280 29839ft 333kts
28-Apr-18 06:18 40.151550 -80.957400 280 29840ft 331kts
28-Apr-18 06:19 40.180339 -81.071295 280 29841ft 331kts
28-Apr-18 06:20 40.209064 -81.185527 280 29840ft 330kts
28-Apr-18 06:21 40.237570 -81.299406 280 29840ft 331kts
28-Apr-18 06:22 40.265943 -81.413268 280 29896ft 329kts
28-Apr-18 06:23 40.294185 -81.527156 280 29897ft 330kts
28-Apr-18 06:24 40.322472 -81.641806 280 29896ft 331kts
28-Apr-18 06:25 40.350278 -81.755017 280 29896ft 331kts
28-Apr-18 06:26 40.369514 -81.833675 280 29896ft 330kts
28-Apr-18 06:27 40.873480 -83.996197 278 29993ft 328kts
28-Apr-18 06:28 40.899080 -84.111849 278 29995ft 330kts
28-Apr-18 06:29 40.924684 -84.228085 278 29995ft 330kts
28-Apr-18 06:30 40.929998 -84.252306 278 29995ft 330kts
28-Apr-18 06:31 41.269550 -85.859877 276 29988ft 329kts
28-Apr-18 06:32 41.666385 -88.050874 297 28680ft 360kts
28-Apr-18 06:33 41.724037 -88.164850 299 24349ft 374kts
28-Apr-18 06:34 41.777085 -88.268495 298 22676ft 339kts
28-Apr-18 06:35 41.832486 -88.373618 305 18911ft 353kts
28-Apr-18 06:36 41.910294 -88.452761 319 15122ft 339kts
28-Apr-18 06:37 41.980104 -88.523702 319 11344ft 303kts
28-Apr-18 06:38 42.044752 -88.590079 321 7590ft 286kts
28-Apr-18 06:39 42.102895 -88.649911 321 6109ft 259kts
28-Apr-18 06:40 42.155619 -88.704309 321 4688ft 253kts
28-Apr-18 06:41 42.210892 -88.761466 320 3177ft 250kts
28-Apr-18 06:42 42.257000 -88.822715 313 2691ft 234kts
28-Apr-18 06:43 42.264725 -88.896472 244 2688ft 187kts
28-Apr-18 06:44 42.247228 -88.951859 237 2694ft 132kts
28-Apr-18 06:45 42.231936 -88.997143 236 2170ft 117kts
28-Apr-18 06:46 42.216684 -89.042073 237 1473ft 125kts
28-Apr-18 06:47 42.203798 -89.079726 248 882ft 103kts
28-Apr-18 06:48 42.201979 -89.092075 25 729ft 0kts
28-Apr-18 06:49 42.201979 -89.092075 25 729ft 0kts
28-Apr-18 06:50 42.201979 -89.092075 25 729ft 0kts
28-Apr-18 06:51 42.201979 -89.092075 25 729ft 0kts
28-Apr-18 06:52 42.201979 -89.092075 25 729ft 0kts
28-Apr-18 06:53 42.201979 -89.092076 25 729ft 0kts

Navigation Log

Ident Type
Flight plan parsing failed, navigation log unavailable